createdAt,value
2023-10-09T00:01:02.971Z,12.31
2023-10-09T00:03:31.398Z,12.82
2023-10-09T00:06:00.101Z,12.80
2023-10-09T00:08:31.720Z,12.79
2023-10-09T00:11:14.944Z,12.82
2023-10-09T00:13:50.527Z,12.81
2023-10-09T00:16:34.533Z,12.86
2023-10-09T00:19:15.039Z,12.22
2023-10-09T00:21:43.628Z,12.61
2023-10-09T00:24:17.658Z,12.43
2023-10-09T00:26:47.410Z,12.24
2023-10-09T00:29:23.145Z,11.98
2023-10-09T00:32:04.924Z,11.88
2023-10-09T00:34:40.810Z,11.72
2023-10-09T00:37:12.127Z,11.59
2023-10-09T00:39:45.337Z,11.49
2023-10-09T00:42:28.952Z,11.58
2023-10-09T00:44:57.389Z,11.61
2023-10-09T00:47:35.661Z,11.67
2023-10-09T00:50:12.109Z,11.68
2023-10-09T00:52:44.354Z,11.65
2023-10-09T00:55:22.350Z,11.79
2023-10-09T00:57:58.973Z,11.78
2023-10-09T01:00:46.522Z,11.83
2023-10-09T01:03:22.516Z,11.88
2023-10-09T01:05:58.636Z,11.91
2023-10-09T01:08:31.625Z,11.98
2023-10-09T01:11:10.501Z,11.95
2023-10-09T01:13:53.753Z,11.61
2023-10-09T01:16:24.197Z,12.00
2023-10-09T01:18:58.348Z,11.98
2023-10-09T01:21:28.229Z,12.00
2023-10-09T01:24:09.832Z,12.03
2023-10-09T01:26:46.081Z,12.13
2023-10-09T01:29:19.535Z,12.18
2023-10-09T01:31:56.244Z,12.20
2023-10-09T01:34:27.738Z,11.92
2023-10-09T01:36:57.298Z,12.28
2023-10-09T01:39:28.904Z,12.32
2023-10-09T01:42:00.813Z,12.34
2023-10-09T01:44:31.863Z,12.35
2023-10-09T01:47:00.173Z,12.45
2023-10-09T01:49:32.581Z,12.40
2023-10-09T01:52:04.990Z,12.53
2023-10-09T01:54:38.937Z,12.54
2023-10-09T01:57:13.670Z,12.56
2023-10-09T01:59:45.139Z,12.53
2023-10-09T02:02:27.165Z,12.50
2023-10-09T02:05:05.728Z,12.33
2023-10-09T02:07:41.990Z,12.54
2023-10-09T02:10:23.014Z,12.66
2023-10-09T02:12:55.139Z,12.74
2023-10-09T02:15:42.437Z,12.70
2023-10-09T02:18:20.322Z,12.62
2023-10-09T02:20:57.273Z,12.55
2023-10-09T02:23:31.574Z,12.53
2023-10-09T02:26:05.934Z,12.55
2023-10-09T02:28:36.090Z,12.49
2023-10-09T02:31:12.536Z,12.46
2023-10-09T02:33:41.603Z,12.46
2023-10-09T02:36:11.230Z,12.43
2023-10-09T02:38:42.347Z,12.36
2023-10-09T02:41:24.549Z,12.36
2023-10-09T02:43:56.392Z,12.25
2023-10-09T02:46:31.545Z,12.29
2023-10-09T02:48:59.908Z,11.99
2023-10-09T02:51:37.650Z,12.34
2023-10-09T02:54:19.987Z,12.31
2023-10-09T02:56:57.631Z,12.31
2023-10-09T02:59:26.479Z,12.27
2023-10-09T03:01:55.218Z,12.21
2023-10-09T03:04:25.595Z,12.26
2023-10-09T03:06:58.565Z,12.27
2023-10-09T03:09:30.253Z,12.13
2023-10-09T03:12:04.001Z,12.29
2023-10-09T03:14:36.738Z,12.28
2023-10-09T03:17:05.455Z,11.70
2023-10-09T03:19:39.029Z,12.24
2023-10-09T03:22:11.956Z,12.21
2023-10-09T03:24:43.072Z,12.24
2023-10-09T03:27:15.273Z,12.23
2023-10-09T03:29:50.242Z,12.24
2023-10-09T03:32:20.842Z,12.23
2023-10-09T03:34:52.672Z,12.20
2023-10-09T03:37:36.068Z,12.13
2023-10-09T03:40:07.396Z,12.09
2023-10-09T03:42:38.230Z,12.09
2023-10-09T03:45:14.297Z,12.03
2023-10-09T03:47:44.699Z,12.05
2023-10-09T03:50:25.233Z,12.05
2023-10-09T03:52:56.182Z,11.88
2023-10-09T03:55:29.410Z,11.75
2023-10-09T03:58:01.092Z,11.54
2023-10-09T04:00:32.712Z,11.50
2023-10-09T04:03:01.563Z,11.60
2023-10-09T04:05:30.842Z,11.55
2023-10-09T04:08:00.374Z,11.56
2023-10-09T04:10:54.353Z,11.52
2023-10-09T04:13:34.129Z,11.41
2023-10-09T04:16:11.037Z,11.30
2023-10-09T04:18:41.429Z,11.29
2023-10-09T04:21:20.922Z,11.20
2023-10-09T04:24:06.839Z,11.19
2023-10-09T04:26:36.309Z,10.72
2023-10-09T04:29:07.894Z,11.14
2023-10-09T04:31:38.915Z,11.28
2023-10-09T04:34:29.792Z,11.27
2023-10-09T04:37:01.638Z,11.21
2023-10-09T04:39:49.141Z,11.18
2023-10-09T04:42:34.641Z,11.19
2023-10-09T04:45:34.440Z,11.17
2023-10-09T04:48:08.240Z,11.10
2023-10-09T04:51:07.781Z,11.09
2023-10-09T04:53:45.454Z,11.07
2023-10-09T04:56:17.175Z,11.05
2023-10-09T04:58:47.375Z,10.59
2023-10-09T05:01:37.244Z,11.09
2023-10-09T05:04:19.714Z,11.04
2023-10-09T05:06:57.206Z,10.99
2023-10-09T05:09:25.342Z,11.02
2023-10-09T05:12:01.353Z,10.95
2023-10-09T05:14:28.684Z,10.93
2023-10-09T05:17:02.578Z,10.95
2023-10-09T05:19:56.091Z,11.05
2023-10-09T05:22:38.088Z,11.03
2023-10-09T05:25:18.012Z,10.92
2023-10-09T05:27:52.058Z,10.95
2023-10-09T05:30:35.264Z,10.95
2023-10-09T05:33:22.382Z,10.93
2023-10-09T05:36:07.047Z,10.97
2023-10-09T05:38:37.285Z,10.74
2023-10-09T05:41:19.442Z,11.05
2023-10-09T05:44:05.398Z,11.15
2023-10-09T05:46:38.278Z,11.18
2023-10-09T05:49:21.359Z,11.15
2023-10-09T05:51:54.883Z,11.18
2023-10-09T05:54:40.710Z,11.17
2023-10-09T05:57:25.818Z,11.34
2023-10-09T06:00:11.711Z,11.49
2023-10-09T06:03:11.887Z,11.35
2023-10-09T06:05:52.682Z,11.45
2023-10-09T06:08:26.251Z,11.50
2023-10-09T06:11:08.460Z,11.09
2023-10-09T06:13:47.121Z,11.43
2023-10-09T06:16:42.671Z,11.57
2023-10-09T06:19:14.637Z,11.73
2023-10-09T06:22:02.304Z,11.74
2023-10-09T06:24:43.099Z,11.77
2023-10-09T06:27:14.893Z,11.94
2023-10-09T06:29:52.648Z,12.08
2023-10-09T06:32:39.353Z,12.26
2023-10-09T06:35:17.222Z,12.32
2023-10-09T06:38:05.344Z,12.45
2023-10-09T06:40:52.293Z,12.52
2023-10-09T06:43:29.071Z,12.43
2023-10-09T06:46:20.227Z,12.51
2023-10-09T06:48:57.432Z,12.63
2023-10-09T06:51:44.688Z,12.76
2023-10-09T06:54:17.168Z,12.93
2023-10-09T06:57:02.900Z,13.00
2023-10-09T06:59:43.052Z,12.99
2023-10-09T07:02:26.874Z,13.15
2023-10-09T07:04:57.385Z,13.21
2023-10-09T07:07:26.134Z,13.29
2023-10-09T07:10:13.848Z,13.46
2023-10-09T07:12:45.456Z,13.74
2023-10-09T07:15:40.551Z,13.88
2023-10-09T07:18:24.664Z,14.01
2023-10-09T07:21:02.897Z,14.08
2023-10-09T07:23:34.468Z,14.02
2023-10-09T07:26:24.646Z,13.74
2023-10-09T07:29:02.100Z,13.81
2023-10-09T07:31:41.368Z,13.77
2023-10-09T07:34:23.654Z,13.82
2023-10-09T07:36:57.930Z,13.86
2023-10-09T07:39:35.898Z,13.74
2023-10-09T07:42:34.954Z,13.83
2023-10-09T07:45:13.971Z,13.95
2023-10-09T07:48:02.464Z,13.98
2023-10-09T07:50:39.520Z,13.82
2023-10-09T07:53:28.485Z,13.92
2023-10-09T07:55:59.868Z,13.87
2023-10-09T07:58:31.905Z,13.97
2023-10-09T08:01:17.130Z,14.18
2023-10-09T08:03:50.276Z,14.21
2023-10-09T08:06:36.346Z,14.43
2023-10-09T08:09:40.082Z,14.53
2023-10-09T08:12:31.769Z,14.23
2023-10-09T08:15:22.281Z,12.61
2023-10-09T08:17:55.418Z,14.84
2023-10-09T08:20:26.640Z,14.78
2023-10-09T08:22:57.293Z,14.90
2023-10-09T08:25:30.051Z,15.00
2023-10-09T08:27:58.829Z,14.92
2023-10-09T08:30:50.557Z,14.95
2023-10-09T08:36:16.645Z,14.57
2023-10-09T08:38:46.193Z,15.18
2023-10-09T08:41:18.875Z,15.13
2023-10-09T08:43:52.371Z,15.18
2023-10-09T08:46:28.431Z,15.19
2023-10-09T08:48:58.152Z,15.61
2023-10-09T08:51:27.732Z,15.75
2023-10-09T08:53:56.452Z,15.88
2023-10-09T08:56:25.224Z,16.07
2023-10-09T08:58:54.368Z,16.29
2023-10-09T09:01:23.985Z,16.25
2023-10-09T09:03:57.027Z,16.45
2023-10-09T09:06:25.612Z,16.33
2023-10-09T09:09:00.938Z,16.49
2023-10-09T09:11:36.707Z,16.72
2023-10-09T09:14:07.799Z,16.85
2023-10-09T09:16:38.459Z,16.71
2023-10-09T09:19:19.321Z,15.69
2023-10-09T09:21:56.082Z,16.77
2023-10-09T09:24:34.603Z,16.48
2023-10-09T09:27:19.525Z,15.70
2023-10-09T09:29:54.085Z,15.55
2023-10-09T09:32:37.269Z,15.45
2023-10-09T09:35:19.615Z,15.79
2023-10-09T09:37:56.382Z,15.79
2023-10-09T09:40:34.721Z,15.66
2023-10-09T09:43:08.142Z,16.12
2023-10-09T09:45:37.917Z,15.81
2023-10-09T09:48:08.433Z,16.25
2023-10-09T09:50:44.984Z,16.56
2023-10-09T09:53:17.985Z,16.45
2023-10-09T09:55:57.819Z,16.29
2023-10-09T09:58:28.989Z,16.02
2023-10-09T10:01:17.273Z,15.96
2023-10-09T10:03:50.372Z,15.94
2023-10-09T10:06:21.822Z,15.85
2023-10-09T10:08:52.747Z,15.97
2023-10-09T10:11:53.432Z,16.28
2023-10-09T10:14:30.406Z,16.36
2023-10-09T10:17:07.702Z,16.28
2023-10-09T10:20:25.529Z,16.40
2023-10-09T10:23:19.897Z,16.61
2023-10-09T10:25:51.473Z,16.88
2023-10-09T10:28:40.773Z,17.12
2023-10-09T10:31:11.193Z,17.39
2023-10-09T10:34:12.150Z,17.67
2023-10-09T10:36:44.028Z,17.82
2023-10-09T10:39:22.669Z,17.74
2023-10-09T10:41:59.159Z,17.58
2023-10-09T10:44:39.300Z,17.31
2023-10-09T10:47:24.149Z,17.30
2023-10-09T10:49:53.377Z,17.47
2023-10-09T10:52:36.764Z,17.57
2023-10-09T10:55:40.563Z,17.76
2023-10-09T10:58:24.900Z,17.99
2023-10-09T11:01:20.442Z,18.23
2023-10-09T11:03:58.687Z,18.45
2023-10-09T11:06:36.928Z,18.43
2023-10-09T11:09:22.119Z,18.29
2023-10-09T11:11:56.859Z,18.25
2023-10-09T11:14:25.086Z,18.47
2023-10-09T11:16:59.451Z,18.79
2023-10-09T11:19:33.924Z,19.05
2023-10-09T11:22:21.793Z,19.20
2023-10-09T11:25:12.757Z,19.39
2023-10-09T11:27:51.732Z,19.52
2023-10-09T11:30:34.081Z,19.60
2023-10-09T11:33:15.558Z,19.62
2023-10-09T11:35:46.437Z,19.75
2023-10-09T11:38:22.728Z,19.90
2023-10-09T11:41:07.503Z,20.09
2023-10-09T11:43:52.854Z,20.27
2023-10-09T11:46:49.642Z,20.46
2023-10-09T11:49:33.764Z,20.12
2023-10-09T11:52:25.885Z,20.10
2023-10-09T11:54:57.622Z,20.05
2023-10-09T11:57:31.957Z,20.16
2023-10-09T12:00:02.405Z,20.11
2023-10-09T12:02:32.668Z,20.38
2023-10-09T12:05:01.231Z,20.50
2023-10-09T12:07:29.762Z,20.86
2023-10-09T12:09:58.668Z,20.96
2023-10-09T12:12:28.405Z,20.88
2023-10-09T12:14:56.712Z,21.30
2023-10-09T12:17:27.793Z,21.58
2023-10-09T12:19:57.664Z,21.72
2023-10-09T12:22:28.701Z,21.66
2023-10-09T12:24:58.455Z,21.76
2023-10-09T12:27:26.783Z,22.17
2023-10-09T12:29:58.223Z,22.39
2023-10-09T12:32:27.959Z,22.39
2023-10-09T12:34:57.603Z,22.14
2023-10-09T12:37:26.493Z,21.23
2023-10-09T12:39:57.456Z,22.42
2023-10-09T12:42:25.921Z,22.89
2023-10-09T12:44:54.233Z,23.08
2023-10-09T12:47:22.537Z,22.99
2023-10-09T12:49:55.311Z,23.09
2023-10-09T12:52:31.068Z,23.40
2023-10-09T12:54:59.604Z,24.03
2023-10-09T12:57:27.806Z,24.45
2023-10-09T12:59:57.331Z,24.48
2023-10-09T13:02:31.066Z,24.28
2023-10-09T13:05:04.854Z,24.28
2023-10-09T13:07:33.455Z,24.06
2023-10-09T13:10:13.490Z,23.69
2023-10-09T13:12:43.031Z,23.35
2023-10-09T13:15:12.781Z,23.03
2023-10-09T13:17:42.961Z,22.74
2023-10-09T13:20:15.244Z,22.79
2023-10-09T13:22:43.892Z,23.13
2023-10-09T13:25:31.507Z,23.20
2023-10-09T13:28:05.379Z,23.49
2023-10-09T13:30:41.324Z,23.76
2023-10-09T13:33:18.541Z,23.97
2023-10-09T13:35:52.025Z,23.99
2023-10-09T13:38:20.671Z,24.12
2023-10-09T13:40:50.909Z,24.24
2023-10-09T13:43:19.182Z,24.45
2023-10-09T13:45:51.534Z,24.55
2023-10-09T13:48:22.500Z,24.36
2023-10-09T13:51:00.045Z,24.10
2023-10-09T13:53:28.508Z,23.75
2023-10-09T13:55:57.678Z,23.29
2023-10-09T13:58:26.231Z,22.98
2023-10-09T14:00:55.018Z,22.97
2023-10-09T14:03:25.945Z,23.07
2023-10-09T14:05:58.442Z,23.53
2023-10-09T14:08:27.612Z,24.17
2023-10-09T14:10:56.298Z,24.38
2023-10-09T14:13:29.931Z,24.15
2023-10-09T14:16:01.436Z,24.23
2023-10-09T14:18:31.434Z,23.72
2023-10-09T14:21:17.261Z,23.54
2023-10-09T14:23:47.993Z,23.10
2023-10-09T14:26:16.526Z,22.58
2023-10-09T14:28:45.238Z,22.02
2023-10-09T14:31:16.110Z,21.57
2023-10-09T14:33:49.542Z,21.29
2023-10-09T14:36:21.669Z,21.00
2023-10-09T14:38:53.688Z,20.89
2023-10-09T14:41:24.786Z,20.82
2023-10-09T14:43:53.667Z,20.75
2023-10-09T14:46:26.419Z,20.65
2023-10-09T14:48:55.371Z,20.58
2023-10-09T14:51:29.106Z,20.60
2023-10-09T14:53:59.915Z,19.99
2023-10-09T14:56:31.810Z,19.92
2023-10-09T14:59:00.942Z,20.20
2023-10-09T15:01:30.642Z,20.20
2023-10-09T15:04:00.899Z,20.13
2023-10-09T15:06:31.617Z,19.94
2023-10-09T15:09:01.814Z,19.77
2023-10-09T15:11:30.886Z,19.64
2023-10-09T15:14:00.549Z,19.54
2023-10-09T15:16:31.830Z,19.54
2023-10-09T15:19:03.313Z,19.37
2023-10-09T15:21:34.178Z,19.02
2023-10-09T15:24:02.575Z,18.87
2023-10-09T15:26:34.820Z,18.90
2023-10-09T15:29:07.821Z,18.82
2023-10-09T15:31:36.617Z,18.61
2023-10-09T15:34:09.776Z,18.39
2023-10-09T15:36:41.236Z,18.40
2023-10-09T15:39:12.942Z,18.41
2023-10-09T15:41:41.437Z,18.39
2023-10-09T15:44:09.898Z,18.18
2023-10-09T15:46:38.183Z,17.99
2023-10-09T15:49:08.196Z,17.92
2023-10-09T15:51:36.658Z,17.78
2023-10-09T15:54:06.534Z,17.62
2023-10-09T15:56:36.226Z,17.65
2023-10-09T15:59:06.764Z,17.59
2023-10-09T16:01:36.939Z,17.60
2023-10-09T16:04:07.450Z,17.67
2023-10-09T16:06:35.902Z,17.44
2023-10-09T16:09:07.042Z,17.41
2023-10-09T16:11:35.501Z,17.37
2023-10-09T16:14:07.093Z,17.29
2023-10-09T16:16:35.433Z,17.25
2023-10-09T16:19:05.791Z,17.25
2023-10-09T16:21:33.993Z,17.18
2023-10-09T16:24:02.280Z,17.19
2023-10-09T16:26:39.420Z,17.18
2023-10-09T16:29:09.185Z,17.31
2023-10-09T16:31:41.107Z,17.17
2023-10-09T16:34:10.318Z,16.95
2023-10-09T16:36:39.155Z,17.01
2023-10-09T16:39:19.639Z,16.91
2023-10-09T16:41:50.045Z,16.52
2023-10-09T16:44:18.913Z,16.66
2023-10-09T16:46:47.994Z,16.57
2023-10-09T16:49:16.336Z,16.52
2023-10-09T16:51:45.921Z,16.57
2023-10-09T16:54:16.692Z,16.58
2023-10-09T16:56:48.798Z,16.54
2023-10-09T16:59:18.550Z,16.42
2023-10-09T17:01:47.170Z,16.13
2023-10-09T17:04:18.413Z,16.35
2023-10-09T17:06:48.388Z,16.46
2023-10-09T17:09:16.637Z,16.42
2023-10-09T17:11:45.198Z,16.49
2023-10-09T17:14:17.374Z,16.45
2023-10-09T17:16:48.655Z,16.44
2023-10-09T17:19:17.032Z,16.21
2023-10-09T17:21:45.303Z,16.32
2023-10-09T17:24:13.938Z,16.12
2023-10-09T17:26:46.632Z,16.36
2023-10-09T17:29:18.160Z,16.47
2023-10-09T17:31:48.319Z,16.42
2023-10-09T17:34:19.113Z,16.31
2023-10-09T17:39:14.053Z,16.21
2023-10-09T17:41:42.322Z,16.27
2023-10-09T17:44:10.588Z,16.28
2023-10-09T17:46:39.294Z,16.21
2023-10-09T17:49:08.976Z,16.34
2023-10-09T17:51:37.703Z,16.29
2023-10-09T17:54:07.469Z,16.32
2023-10-09T17:56:38.667Z,16.35
2023-10-09T17:59:15.173Z,16.31
2023-10-09T18:01:43.703Z,16.22
2023-10-09T18:04:20.244Z,15.52
2023-10-09T18:06:51.676Z,15.97
2023-10-09T18:09:20.212Z,16.14
2023-10-09T18:11:50.411Z,16.08
2023-10-09T18:14:19.838Z,16.03
2023-10-09T18:16:49.267Z,15.90
2023-10-09T18:19:21.594Z,15.81
2023-10-09T18:21:52.009Z,15.79
2023-10-09T18:24:21.681Z,15.80
2023-10-09T18:26:51.402Z,15.71
2023-10-09T18:29:19.733Z,15.72
2023-10-09T18:31:50.998Z,15.72
2023-10-09T18:34:22.619Z,15.72
2023-10-09T18:36:52.981Z,15.74
2023-10-09T18:39:24.116Z,15.77
2023-10-09T18:41:55.560Z,15.82
2023-10-09T18:44:31.986Z,15.89
2023-10-09T18:47:01.025Z,15.40
2023-10-09T18:49:31.168Z,15.77
2023-10-09T18:52:01.016Z,15.77
2023-10-09T18:54:31.469Z,15.71
2023-10-09T18:56:59.750Z,15.78
2023-10-09T18:59:30.800Z,15.71
2023-10-09T19:01:59.300Z,15.70
2023-10-09T19:04:29.600Z,15.63
2023-10-09T19:07:00.791Z,15.53
2023-10-09T19:09:29.006Z,15.57
2023-10-09T19:11:58.691Z,15.50
2023-10-09T19:14:30.159Z,15.07
2023-10-09T19:17:01.189Z,15.47
2023-10-09T19:19:29.956Z,15.47
2023-10-09T19:22:00.982Z,15.31
2023-10-09T19:24:33.247Z,15.41
2023-10-09T19:27:03.219Z,14.92
2023-10-09T19:29:31.758Z,15.35
2023-10-09T19:32:00.093Z,15.29
2023-10-09T19:34:28.727Z,15.42
2023-10-09T19:36:57.628Z,15.39
2023-10-09T19:39:32.866Z,15.45
2023-10-09T19:42:01.987Z,15.39
2023-10-09T19:44:30.941Z,15.41
2023-10-09T19:47:00.100Z,15.32
2023-10-09T19:49:30.600Z,15.39
2023-10-09T19:51:59.148Z,15.41
2023-10-09T19:54:29.876Z,15.25
2023-10-09T19:56:59.128Z,15.21
2023-10-09T19:59:27.848Z,15.19
2023-10-09T20:01:57.311Z,15.23
2023-10-09T20:04:26.753Z,15.17
2023-10-09T20:06:55.340Z,15.02
2023-10-09T20:09:23.731Z,14.94
2023-10-09T20:11:53.686Z,14.86
2023-10-09T20:14:22.015Z,14.84
2023-10-09T20:16:50.528Z,14.67
2023-10-09T20:19:18.923Z,14.86
2023-10-09T20:21:47.927Z,14.93
2023-10-09T20:24:16.257Z,14.87
2023-10-09T20:26:44.510Z,14.86
2023-10-09T20:29:15.646Z,14.92
2023-10-09T20:31:46.375Z,14.91
2023-10-09T20:34:15.382Z,14.92
2023-10-09T20:36:45.212Z,14.91
2023-10-09T20:39:17.977Z,14.54
2023-10-09T20:41:48.266Z,14.86
2023-10-09T20:44:18.622Z,14.84
2023-10-09T20:46:49.327Z,14.88
2023-10-09T20:49:18.169Z,14.91
2023-10-09T20:51:57.196Z,14.84
2023-10-09T20:54:26.793Z,14.84
2023-10-09T20:56:55.173Z,14.73
2023-10-09T20:59:25.068Z,14.55
2023-10-09T21:01:53.902Z,14.66
2023-10-09T21:04:22.250Z,14.55
2023-10-09T21:06:50.842Z,14.58
2023-10-09T21:09:58.982Z,14.49
2023-10-09T21:12:27.671Z,14.44
2023-10-09T21:14:59.631Z,14.42
2023-10-09T21:17:28.063Z,14.39
2023-10-09T21:19:56.624Z,14.45
2023-10-09T21:22:25.686Z,14.48
2023-10-09T21:24:54.568Z,13.92
2023-10-09T21:27:22.718Z,14.23
2023-10-09T21:29:51.386Z,14.34
2023-10-09T21:32:21.039Z,14.31
2023-10-09T21:34:49.321Z,14.30
2023-10-09T21:37:20.530Z,14.34
2023-10-09T21:39:52.792Z,13.96
2023-10-09T21:42:20.996Z,14.24
2023-10-09T21:44:49.200Z,14.36
2023-10-09T21:47:17.355Z,14.30
2023-10-09T21:49:47.004Z,14.28
2023-10-09T21:52:15.178Z,14.28
2023-10-09T21:54:43.432Z,14.16
2023-10-09T21:57:11.781Z,14.06
2023-10-09T21:59:41.938Z,14.24
2023-10-09T22:02:12.058Z,14.22
2023-10-09T22:04:41.870Z,14.07
2023-10-09T22:07:19.147Z,14.09
2023-10-09T22:09:57.999Z,14.07
2023-10-09T22:12:26.546Z,14.07
2023-10-09T22:14:55.066Z,14.08
2023-10-09T22:17:23.318Z,14.02
2023-10-09T22:19:51.702Z,14.13
2023-10-09T22:22:23.696Z,14.15
2023-10-09T22:24:51.992Z,14.16
2023-10-09T22:27:25.211Z,13.74
2023-10-09T22:29:54.623Z,14.13
2023-10-09T22:32:28.812Z,14.02
2023-10-09T22:34:58.870Z,14.04
2023-10-09T22:37:32.531Z,14.04
2023-10-09T22:40:01.470Z,13.42
2023-10-09T22:42:30.468Z,14.02
2023-10-09T22:44:58.663Z,14.08
2023-10-09T22:47:34.268Z,14.07
2023-10-09T22:50:18.986Z,14.07
2023-10-09T22:52:49.363Z,13.66
2023-10-09T22:55:18.959Z,13.82
2023-10-09T22:57:47.708Z,13.88
2023-10-09T23:00:37.900Z,13.70
2023-10-09T23:03:10.718Z,13.92
2023-10-09T23:05:45.317Z,13.57
2023-10-09T23:08:20.298Z,13.84
2023-10-09T23:10:53.567Z,13.85
2023-10-09T23:13:35.035Z,13.85
2023-10-09T23:16:15.757Z,13.86
2023-10-09T23:19:06.738Z,13.88
2023-10-09T23:21:48.949Z,13.67
2023-10-09T23:24:27.962Z,13.95
2023-10-09T23:26:56.936Z,13.98
2023-10-09T23:29:31.640Z,13.94
2023-10-09T23:32:21.080Z,13.94
2023-10-09T23:34:56.099Z,13.88
2023-10-09T23:37:41.002Z,13.84
2023-10-09T23:40:18.193Z,13.97
2023-10-09T23:42:58.773Z,13.96
2023-10-09T23:45:32.850Z,13.97
2023-10-09T23:48:01.471Z,14.00
2023-10-09T23:50:32.845Z,14.06
2023-10-09T23:53:05.608Z,14.09
2023-10-09T23:55:43.254Z,14.21
2023-10-09T23:58:21.255Z,13.82
